Time;durP1;ratioP1;P1;durP2;ratioP2;P2;SDS_P1;SDS_P2;PMS_P1;PMS_P2;Temp;Humidity;BMP_temperature;BMP_pressure;BME280_temperature;BME280_humidity;BME280_pressure;Samples;Min_cycle;Max_cycle;Signal;HPM_P1;HPM_P2
2022/05/13 00:04:50;;;;;;;0.70;0.70;;;17.20;48.90;19.20;94294.00;;;;10505980;28;45271;-62
2022/05/13 00:10:13;;;;;;;1.63;0.80;;;17.20;49.00;19.30;94307.00;;;;10476854;28;45775;-63
2022/05/13 00:15:34;;;;;;;0.90;0.70;;;17.20;48.90;19.20;94303.00;;;;10480907;28;45129;-63
2022/05/13 00:20:54;;;;;;;1.05;0.70;;;17.20;48.90;19.20;94296.00;;;;10484006;28;45231;-63
2022/05/13 00:26:17;;;;;;;0.82;0.75;;;17.20;48.90;19.20;94288.00;;;;10483412;28;45154;-63
2022/05/13 00:31:38;;;;;;;0.75;0.75;;;17.20;48.90;19.20;94263.00;;;;10484161;28;45874;-63
2022/05/13 00:36:58;;;;;;;0.88;0.70;;;17.20;48.90;19.20;94266.00;;;;10483033;28;45641;-63
2022/05/13 00:42:22;;;;;;;1.05;0.82;;;17.20;49.40;19.20;94259.00;;;;10483426;28;45754;-63
2022/05/13 00:47:44;;;;;;;0.70;0.70;;;17.20;48.80;19.20;94261.00;;;;10482705;28;45181;-63
2022/05/13 00:53:05;;;;;;;0.85;0.70;;;17.20;48.80;19.20;94253.00;;;;10483167;28;45836;-63
2022/05/13 00:58:30;;;;;;;1.75;0.80;;;17.20;48.80;19.20;94275.00;;;;10480640;28;45207;-64
2022/05/13 01:03:51;;;;;;;0.93;0.73;;;17.20;48.80;19.20;94264.00;;;;10477403;28;45704;-64
2022/05/13 01:09:12;;;;;;;0.70;0.60;;;17.20;48.80;19.20;94274.00;;;;10481998;28;45241;-63
2022/05/13 01:14:40;;;;;;;0.70;0.57;;;17.20;48.70;19.20;94263.00;;;;10482426;28;45163;-63
2022/05/13 01:20:00;;;;;;;0.80;0.70;;;17.20;48.60;19.20;94262.00;;;;10481599;28;45218;-63
2022/05/13 01:25:26;;;;;;;0.88;0.70;;;17.20;48.60;19.20;94261.00;;;;10480824;28;45172;-64
2022/05/13 01:30:50;;;;;;;0.70;0.70;;;17.10;48.60;19.20;94261.00;;;;10481820;28;45797;-63
2022/05/13 01:36:12;;;;;;;0.77;0.70;;;17.20;48.60;19.20;94258.00;;;;10481187;28;45240;-62
2022/05/13 01:41:34;;;;;;;1.35;0.90;;;17.10;48.60;19.20;94257.00;;;;10481778;28;45179;-63
2022/05/13 01:46:55;;;;;;;0.60;0.60;;;17.20;48.60;19.20;94262.00;;;;10480822;28;45147;-63
2022/05/13 01:52:15;;;;;;;1.20;0.68;;;17.10;48.70;19.20;94253.00;;;;10481492;28;45189;-62
2022/05/13 01:57:37;;;;;;;0.90;0.80;;;17.10;48.60;19.20;94254.00;;;;10480814;28;45788;-63
2022/05/13 02:08:37;;;;;;;0.70;0.70;;;17.10;48.70;19.20;94252.00;;;;10480460;28;45191;-63
2022/05/13 02:13:59;;;;;;;0.70;0.60;;;17.10;48.60;19.10;94245.00;;;;10480654;28;45753;-63
2022/05/13 02:19:20;;;;;;;0.90;0.77;;;17.10;48.60;19.10;94238.00;;;;10479852;28;45155;-63
2022/05/13 02:24:40;;;;;;;0.60;0.60;;;17.10;48.60;19.10;94257.00;;;;10481025;28;45516;-63
2022/05/13 02:30:02;;;;;;;1.52;0.80;;;17.10;48.50;19.20;94263.00;;;;10480079;28;45264;-63
2022/05/13 02:35:23;;;;;;;1.08;0.80;;;17.10;48.50;19.20;94255.00;;;;10479496;28;45242;-63
2022/05/13 02:46:27;;;;;;;0.70;0.60;;;17.10;48.50;19.10;94253.00;;;;10478898;28;45263;-62
2022/05/13 02:51:49;;;;;;;0.98;0.65;;;17.10;48.50;19.10;94254.00;;;;10479059;28;45164;-63
2022/05/13 02:57:10;;;;;;;1.63;0.80;;;17.10;48.50;19.10;94246.00;;;;10478091;28;45693;-63
2022/05/13 03:02:33;;;;;;;0.50;0.50;;;17.10;48.50;19.10;94250.00;;;;10478401;28;45244;-63
2022/05/13 03:07:53;;;;;;;0.80;0.80;;;17.10;48.50;19.10;94245.00;;;;10478654;28;45759;-63
2022/05/13 03:13:18;;;;;;;0.80;0.60;;;17.10;48.50;19.10;94238.00;;;;10478511;28;45108;-62
2022/05/13 03:18:40;;;;;;;0.85;0.77;;;17.10;48.60;19.10;94234.00;;;;10478126;28;45156;-64
2022/05/13 03:24:00;;;;;;;0.88;0.73;;;17.10;48.40;19.10;94244.00;;;;10478101;28;45457;-63
2022/05/13 03:29:21;;;;;;;1.27;0.70;;;17.00;48.40;19.10;94237.00;;;;10478048;28;45107;-63
2022/05/13 03:34:43;;;;;;;0.95;0.68;;;17.10;48.40;19.10;94232.00;;;;10477704;28;45785;-63
2022/05/13 03:40:05;;;;;;;0.60;0.60;;;17.00;48.50;19.10;94238.00;;;;10477508;28;45289;-64
2022/05/13 03:45:26;;;;;;;0.82;0.80;;;17.00;48.40;19.10;94237.00;;;;10477352;28;45675;-63
2022/05/13 03:50:48;;;;;;;0.93;0.70;;;17.00;48.40;19.10;94233.00;;;;10476620;28;45859;-63
2022/05/13 03:56:09;;;;;;;0.73;0.65;;;17.10;48.50;19.00;94237.00;;;;10476419;28;45127;-62
2022/05/13 04:01:29;;;;;;;0.82;0.52;;;17.00;48.40;19.10;94241.00;;;;10477153;28;45237;-62
2022/05/13 04:18:08;;;;;;;0.50;0.50;;;17.00;48.40;19.00;94221.00;;;;10476486;28;45104;-62
2022/05/13 04:23:30;;;;;;;0.68;0.68;;;17.00;48.40;19.10;94243.00;;;;10476466;28;45819;-62
2022/05/13 04:28:52;;;;;;;0.50;0.50;;;17.00;48.40;19.10;94225.00;;;;10476437;28;45154;-63
2022/05/13 04:34:13;;;;;;;0.70;0.70;;;17.00;48.40;19.00;94239.00;;;;10476533;28;45101;-62
2022/05/13 04:39:35;;;;;;;1.00;0.60;;;17.00;48.40;19.00;94230.00;;;;10475570;28;45763;-62
2022/05/13 04:44:57;;;;;;;0.80;0.60;;;17.00;48.40;19.10;94254.00;;;;10475677;28;45160;-62
2022/05/13 04:50:19;;;;;;;0.73;0.50;;;17.00;48.40;19.00;94240.00;;;;10475511;28;45664;-62
2022/05/13 04:55:41;;;;;;;0.82;0.68;;;17.00;48.40;19.00;94260.00;;;;10475470;28;45219;-63
2022/05/13 05:01:03;;;;;;;0.82;0.57;;;17.00;48.40;19.00;94255.00;;;;10479183;28;45833;-62
2022/05/13 05:06:24;;;;;;;0.60;0.50;;;17.00;48.40;19.10;94261.00;;;;10482927;28;45434;-62
2022/05/13 05:11:46;;;;;;;0.60;0.60;;;17.00;48.50;19.00;94262.00;;;;10482429;28;45180;-62
2022/05/13 05:17:06;;;;;;;0.90;0.80;;;17.00;48.50;19.00;94269.00;;;;10481522;28;45209;-62
2022/05/13 05:22:27;;;;;;;0.77;0.60;;;17.00;48.60;19.00;94277.00;;;;10482236;28;45743;-62
2022/05/13 05:27:49;;;;;;;0.57;0.50;;;17.00;48.50;19.00;94277.00;;;;10481326;28;45202;-62
2022/05/13 05:33:10;;;;;;;0.60;0.60;;;17.00;48.60;19.00;94271.00;;;;10481349;28;45151;-62
2022/05/13 05:38:31;;;;;;;1.35;0.68;;;17.00;48.50;19.00;94252.00;;;;10481258;28;45125;-62
2022/05/13 05:43:54;;;;;;;1.05;0.50;;;17.00;48.50;19.00;94285.00;;;;10481401;28;45190;-62
2022/05/13 05:49:14;;;;;;;0.63;0.63;;;17.00;48.60;19.00;94271.00;;;;10481203;28;45125;-62
2022/05/13 06:00:16;;;;;;;0.55;0.50;;;17.00;48.50;19.00;94272.00;;;;10522720;28;45135;-63
2022/05/13 06:05:38;;;;;;;1.33;0.63;;;16.90;48.50;19.10;94283.00;;;;10507570;28;45883;-63
2022/05/13 06:10:59;;;;;;;0.80;0.70;;;17.00;48.50;19.20;94280.00;;;;10479980;28;45155;-65
2022/05/13 06:16:22;;;;;;;0.70;0.60;;;17.10;48.30;19.20;94283.00;;;;10479081;28;45177;-65
2022/05/13 06:21:43;;;;;;;0.57;0.43;;;17.10;48.10;19.30;94285.00;;;;10479650;28;45126;-66
2022/05/13 06:27:04;;;;;;;0.70;0.60;;;17.20;48.00;19.30;94288.00;;;;10481060;28;45091;-65
2022/05/13 06:32:26;;;;;;;0.50;0.47;;;17.20;47.90;19.30;94287.00;;;;10480371;28;45178;-63
2022/05/13 06:37:48;;;;;;;0.90;0.63;;;17.30;47.80;19.40;94300.00;;;;10481095;28;46317;-63
2022/05/13 06:43:09;;;;;;;0.55;0.55;;;17.30;47.80;19.40;94318.00;;;;10479463;28;45229;-65
2022/05/13 06:48:31;;;;;;;0.43;0.43;;;17.40;47.80;19.40;94292.00;;;;10480800;28;45688;-63
2022/05/13 06:53:52;;;;;;;0.55;0.52;;;17.30;47.70;19.40;94297.00;;;;10478484;28;45263;-65
2022/05/13 06:59:13;;;;;;;0.93;0.60;;;17.40;47.70;19.40;94306.00;;;;10478169;28;45252;-65
2022/05/13 07:04:34;;;;;;;0.60;0.60;;;17.40;47.70;19.50;94296.00;;;;10478022;28;45146;-64
2022/05/13 07:09:55;;;;;;;0.65;0.63;;;17.40;47.60;19.50;94307.00;;;;10478301;28;45240;-64
2022/05/13 07:15:19;;;;;;;0.40;0.40;;;17.40;47.60;19.50;94300.00;;;;10479972;28;46090;-65
2022/05/13 07:20:41;;;;;;;0.50;0.50;;;17.50;47.60;19.50;94302.00;;;;10480033;28;45743;-65
2022/05/13 07:26:02;;;;;;;0.73;0.57;;;17.50;47.60;19.50;94315.00;;;;10477356;28;45451;-65
2022/05/13 07:31:22;;;;;;;1.45;0.43;;;17.50;47.60;19.60;94313.00;;;;10477961;28;45283;-63
2022/05/13 07:36:45;;;;;;;0.50;0.50;;;17.50;47.50;19.60;94300.00;;;;10477426;28;45197;-66
2022/05/13 07:42:07;;;;;;;1.65;0.80;;;17.60;47.50;19.50;94307.00;;;;10478772;28;45116;-63
2022/05/13 07:47:27;;;;;;;1.73;0.80;;;17.60;51.30;19.60;94315.00;;;;10478243;28;45192;-66
2022/05/13 07:52:50;;;;;;;1.42;0.85;;;17.60;49.90;19.60;94326.00;;;;10478718;28;45761;-63
2022/05/13 07:58:10;;;;;;;1.30;0.75;;;17.60;50.40;19.70;94323.00;;;;10478288;28;45120;-65
2022/05/13 08:03:31;;;;;;;2.47;1.10;;;17.60;49.80;19.70;94331.00;;;;10479609;28;45861;-65
2022/05/13 08:08:56;;;;;;;4.82;1.77;;;17.70;51.30;19.70;94337.00;;;;10478234;28;45159;-65
2022/05/13 08:14:16;;;;;;;5.00;2.25;;;17.60;52.50;19.70;94352.00;;;;10478668;28;45108;-64
2022/05/13 08:19:37;;;;;;;4.15;1.65;;;17.70;53.80;19.80;94331.00;;;;10476815;28;45763;-63
2022/05/13 08:24:58;;;;;;;4.60;2.05;;;17.70;51.80;19.80;94344.00;;;;10476019;28;45205;-64
2022/05/13 08:30:21;;;;;;;5.40;2.30;;;17.70;52.10;19.80;94329.00;;;;10476341;28;45193;-63
2022/05/13 08:35:46;;;;;;;3.60;1.77;;;17.80;53.00;19.90;94340.00;;;;10479025;28;45187;-64
2022/05/13 08:41:24;;;;;;;5.30;2.15;;;17.80;52.10;19.90;94353.00;;;;10477591;28;45206;-63
2022/05/13 08:46:57;;;;;;;10.93;3.05;;;17.80;51.60;19.90;94346.00;;;;10481069;28;45469;-66
2022/05/13 08:58:29;;;;;;;9.32;3.15;;;17.90;52.20;20.00;94374.00;;;;10447974;28;45361;-63
2022/05/13 09:03:56;;;;;;;12.43;4.00;;;17.90;52.40;19.90;94365.00;;;;10480477;28;45831;-64
2022/05/13 09:09:16;;;;;;;9.88;3.90;;;17.90;53.40;20.00;94381.00;;;;10482844;28;45124;-64
2022/05/13 09:14:44;;;;;;;10.90;3.88;;;17.90;52.70;20.00;94381.00;;;;10482569;28;45187;-66
2022/05/13 09:20:10;;;;;;;11.82;3.85;;;18.00;52.90;20.10;94383.00;;;;10483557;28;46167;-64
2022/05/13 09:25:38;;;;;;;4.82;2.10;;;18.00;52.70;19.90;94382.00;;;;10483189;28;45281;-66
2022/05/13 09:31:12;;;;;;;9.00;2.30;;;17.90;51.10;19.90;94392.00;;;;10478966;28;45373;-62
2022/05/13 09:36:35;;;;;;;8.30;2.60;;;17.90;53.10;20.00;94388.00;;;;10480866;28;45201;-65
2022/05/13 09:41:56;;;;;;;6.38;2.10;;;18.00;53.40;20.00;94374.00;;;;10482716;28;45179;-61
2022/05/13 09:47:28;;;;;;;5.20;1.92;;;17.90;52.50;20.00;94374.00;;;;10475938;28;45443;-61
2022/05/13 09:52:51;;;;;;;5.93;2.20;;;18.00;53.30;20.00;94347.00;;;;10480970;28;45222;-63
2022/05/13 09:58:22;;;;;;;7.20;1.80;;;18.00;53.50;20.00;94330.00;;;;10481282;28;45889;-61
2022/05/13 10:04:08;;;;;;;3.70;1.65;;;18.00;54.30;20.00;94346.00;;;;10480953;28;45124;-61
2022/05/13 10:15:15;;;;;;;5.57;2.08;;;17.90;55.10;20.00;94360.00;;;;10479650;28;45292;-62
2022/05/13 10:20:40;;;;;;;4.35;1.70;;;18.00;55.50;20.00;94358.00;;;;10481346;28;45376;-62
2022/05/13 10:26:05;;;;;;;5.45;1.90;;;17.90;56.50;20.00;94370.00;;;;10484252;28;45705;-63
2022/05/13 10:31:30;;;;;;;3.22;1.90;;;17.90;56.10;20.00;94370.00;;;;10481045;28;45161;-62
2022/05/13 10:37:00;;;;;;;3.50;1.52;;;17.90;56.20;20.00;94363.00;;;;10480008;28;45759;-62
2022/05/13 10:42:24;;;;;;;4.03;1.77;;;17.90;56.30;20.00;94370.00;;;;10479166;28;45392;-63
2022/05/13 10:47:50;;;;;;;4.38;1.83;;;17.90;56.70;20.00;94357.00;;;;10465915;28;45332;-64
2022/05/13 10:53:19;;;;;;;4.67;1.60;;;17.90;56.60;20.00;94358.00;;;;10473062;28;45916;-63
2022/05/13 10:58:50;;;;;;;3.72;1.58;;;17.90;56.80;20.00;94359.00;;;;10475329;28;45186;-63
2022/05/13 11:04:20;;;;;;;4.03;1.70;;;17.90;57.00;20.00;94349.00;;;;10478769;28;45180;-62
2022/05/13 11:09:57;;;;;;;3.70;1.75;;;17.90;57.10;20.00;94358.00;;;;10479163;28;45342;-62
2022/05/13 11:15:28;;;;;;;4.93;1.70;;;17.90;57.20;20.00;94359.00;;;;10478830;28;45765;-62
2022/05/13 11:20:58;;;;;;;3.60;1.30;;;17.90;56.90;20.00;94363.00;;;;10478646;28;45103;-62
2022/05/13 11:26:27;;;;;;;4.10;1.88;;;17.90;57.00;20.00;94355.00;;;;10436402;28;45661;-63
2022/05/13 11:32:08;;;;;;;3.70;1.77;;;17.90;57.00;20.00;94342.00;;;;10467032;28;45285;-63
2022/05/13 11:37:33;;;;;;;3.78;1.50;;;17.90;56.60;20.00;94361.00;;;;10477737;28;45310;-63
2022/05/13 11:43:19;;;;;;;3.78;1.70;;;17.90;57.10;20.00;94358.00;;;;10477835;28;45108;-64
2022/05/13 11:48:45;;;;;;;4.47;1.70;;;17.90;57.10;20.00;94355.00;;;;10476691;28;46138;-63
2022/05/13 11:54:28;;;;;;;5.20;1.48;;;17.90;56.90;19.90;94346.00;;;;10465079;28;45163;-62
2022/05/13 11:59:53;;;;;;;3.25;1.40;;;17.90;56.60;20.00;94353.00;;;;10477864;28;45148;-63
2022/05/13 12:05:41;;;;;;;5.10;1.85;;;17.90;57.20;20.00;94333.00;;;;10519847;22;45891;-62
2022/05/13 12:11:33;;;;;;;3.90;1.52;;;17.90;56.70;19.90;94341.00;;;;10523055;27;45213;-62
2022/05/13 12:17:08;;;;;;;6.60;2.00;;;17.90;57.30;19.90;94344.00;;;;10455247;28;45136;-62
2022/05/13 12:22:48;;;;;;;3.90;1.80;;;17.90;57.50;19.90;94355.00;;;;10479545;28;45166;-63
2022/05/13 12:28:12;;;;;;;4.22;1.58;;;17.90;57.00;19.90;94349.00;;;;10484555;28;45161;-62
2022/05/13 12:33:39;;;;;;;4.78;1.92;;;17.90;56.50;19.90;94355.00;;;;10460452;28;45172;-62
2022/05/13 12:39:07;;;;;;;3.85;1.60;;;17.80;56.50;19.90;94349.00;;;;10484656;28;45151;-62
2022/05/13 12:44:41;;;;;;;3.03;1.50;;;17.80;55.90;19.90;94320.00;;;;10483396;28;45143;-62
2022/05/13 12:50:28;;;;;;;3.55;1.70;;;17.80;56.10;19.90;94327.00;;;;10484044;28;45790;-62
2022/05/13 12:55:48;;;;;;;3.75;1.73;;;17.80;56.30;19.90;94328.00;;;;10483191;28;45109;-63
2022/05/13 13:01:12;;;;;;;4.22;1.70;;;17.80;56.10;19.90;94344.00;;;;10483889;28;45325;-62
2022/05/13 13:06:43;;;;;;;4.45;1.50;;;17.80;56.20;19.90;94341.00;;;;10483737;28;45189;-63
2022/05/13 13:12:09;;;;;;;4.22;1.92;;;17.80;56.20;19.90;94324.00;;;;10484362;28;45184;-63
2022/05/13 13:17:33;;;;;;;2.67;1.50;;;17.80;56.00;19.90;94325.00;;;;10483294;28;45282;-63
2022/05/13 13:23:00;;;;;;;3.47;1.65;;;17.80;55.80;19.90;94329.00;;;;10482806;28;45222;-62
2022/05/13 13:28:26;;;;;;;2.72;1.45;;;17.80;56.00;19.80;94307.00;;;;10482660;28;45386;-64
2022/05/13 13:33:50;;;;;;;3.63;1.75;;;17.80;56.00;19.80;94331.00;;;;10482815;28;45095;-62
2022/05/13 13:39:13;;;;;;;3.63;1.70;;;17.80;56.00;19.80;94330.00;;;;10482141;28;45782;-62
2022/05/13 13:44:35;;;;;;;3.92;1.60;;;17.80;55.90;19.80;94323.00;;;;10483948;28;45883;-63
2022/05/13 13:49:57;;;;;;;3.67;1.63;;;17.80;55.50;19.80;94320.00;;;;10483552;28;45192;-62
2022/05/13 13:55:25;;;;;;;2.67;1.10;;;17.70;55.60;19.80;94316.00;;;;10481167;28;45107;-63
2022/05/13 14:00:50;;;;;;;3.50;1.40;;;17.70;55.50;19.80;94305.00;;;;10482027;28;45180;-62
2022/05/13 14:06:16;;;;;;;2.58;1.35;;;17.70;55.50;19.80;94306.00;;;;10481483;28;45120;-62
2022/05/13 14:11:38;;;;;;;3.20;1.47;;;17.70;55.50;19.80;94303.00;;;;10481692;28;45529;-62
2022/05/13 14:17:03;;;;;;;2.92;1.30;;;17.70;55.30;19.80;94290.00;;;;10480206;28;45307;-62
2022/05/13 14:22:23;;;;;;;2.72;1.35;;;17.70;55.50;19.80;94310.00;;;;10480028;28;45644;-63
2022/05/13 14:27:46;;;;;;;2.33;1.45;;;17.70;55.60;19.80;94307.00;;;;10477969;28;45186;-63
2022/05/13 14:33:08;;;;;;;2.28;1.20;;;17.70;55.10;19.80;94284.00;;;;10440700;28;45246;-62
2022/05/13 14:44:36;;;;;;;2.50;1.40;;;17.70;55.10;19.70;94286.00;;;;10441852;28;45330;-64
2022/05/13 14:50:00;;;;;;;3.45;1.20;;;17.70;55.00;19.80;94293.00;;;;10441658;28;45147;-63
2022/05/13 14:55:30;;;;;;;2.78;1.30;;;17.70;54.90;19.80;94301.00;;;;10441549;28;45739;-64
2022/05/13 15:00:56;;;;;;;2.90;1.60;;;17.70;54.90;19.70;94303.00;;;;10440948;28;45224;-63
2022/05/13 15:06:20;;;;;;;3.13;1.10;;;17.70;55.50;19.80;94295.00;;;;10468588;28;45193;-60
2022/05/13 15:11:41;;;;;;;2.88;1.17;;;17.80;54.90;19.90;94310.00;;;;10478353;28;45273;-64
2022/05/13 15:17:05;;;;;;;2.15;1.10;;;17.80;54.10;19.80;94304.00;;;;10481343;28;45798;-60
2022/05/13 15:22:27;;;;;;;2.28;1.10;;;17.80;55.20;19.80;94297.00;;;;10481811;28;45313;-62
2022/05/13 15:27:48;;;;;;;1.90;1.00;;;17.80;54.20;19.80;94296.00;;;;10479729;28;45432;-63
2022/05/13 15:33:10;;;;;;;1.60;1.13;;;17.80;54.10;19.80;94295.00;;;;10475395;28;45437;-60
2022/05/13 15:38:31;;;;;;;2.03;1.05;;;17.80;54.30;19.80;94291.00;;;;10480692;28;46018;-61
2022/05/13 15:43:52;;;;;;;2.53;1.25;;;17.80;54.20;19.80;94288.00;;;;10480926;28;45103;-63
2022/05/13 15:54:54;;;;;;;2.58;1.40;;;17.70;53.90;19.80;94296.00;;;;10481883;28;45158;-61
2022/05/13 16:00:19;;;;;;;1.35;0.90;;;17.70;53.80;19.70;94302.00;;;;10481878;28;45327;-60
2022/05/13 16:05:41;;;;;;;1.77;0.75;;;17.70;53.80;19.80;94304.00;;;;10476032;28;45098;-61
2022/05/13 16:11:03;;;;;;;1.95;1.00;;;17.70;53.70;19.70;94301.00;;;;10475015;28;45447;-62
2022/05/13 16:16:27;;;;;;;1.38;0.95;;;17.70;53.70;19.70;94284.00;;;;10479460;28;45246;-62
2022/05/13 16:21:51;;;;;;;1.83;1.08;;;17.70;53.70;19.70;94301.00;;;;10473878;28;45418;-61
2022/05/13 16:27:17;;;;;;;3.05;1.00;;;17.70;53.50;19.70;94301.00;;;;10476385;28;45192;-61
2022/05/13 16:32:38;;;;;;;2.72;1.00;;;17.70;53.40;19.70;94306.00;;;;10476530;28;45175;-62
2022/05/13 16:38:00;;;;;;;1.27;0.98;;;17.60;53.10;19.70;94291.00;;;;10476060;28;45195;-61
2022/05/13 16:43:20;;;;;;;1.35;0.95;;;17.60;53.10;19.70;94299.00;;;;10476222;28;45114;-62
2022/05/13 16:48:41;;;;;;;4.28;1.10;;;17.60;53.20;19.70;94302.00;;;;10475801;28;45673;-62
2022/05/13 16:54:03;;;;;;;1.58;0.98;;;17.60;53.00;19.70;94301.00;;;;10478673;28;45177;-62
2022/05/13 16:59:24;;;;;;;1.83;1.10;;;17.60;53.00;19.70;94291.00;;;;10480674;28;46060;-62
2022/05/13 17:04:45;;;;;;;1.92;1.05;;;17.60;53.00;19.70;94307.00;;;;10476704;28;45275;-62
2022/05/13 17:21:26;;;;;;;1.55;0.90;;;17.60;52.90;19.60;94302.00;;;;10481125;28;45314;-62
2022/05/13 17:26:53;;;;;;;2.85;1.10;;;17.60;53.00;19.60;94298.00;;;;10480817;28;45344;-62
2022/05/13 17:32:15;;;;;;;1.52;1.00;;;17.60;52.90;19.60;94300.00;;;;10471610;28;45291;-61
2022/05/13 17:37:40;;;;;;;1.33;0.95;;;17.60;52.80;19.60;94303.00;;;;10476988;28;45195;-61
2022/05/13 17:43:05;;;;;;;1.65;0.93;;;17.60;52.60;19.60;94298.00;;;;10481428;28;45202;-62
2022/05/13 17:48:26;;;;;;;1.25;0.90;;;17.60;52.60;19.60;94298.00;;;;10479796;28;45274;-60
2022/05/13 17:53:47;;;;;;;1.13;0.90;;;17.50;52.60;19.60;94293.00;;;;10481617;28;45185;-62
2022/05/13 17:59:09;;;;;;;1.85;0.82;;;17.50;52.50;19.60;94304.00;;;;10480236;28;45267;-62
2022/05/13 18:04:31;;;;;;;1.50;0.77;;;17.50;52.50;19.60;94307.00;;;;10523507;22;45558;-62
2022/05/13 18:09:51;;;;;;;1.42;1.10;;;17.50;52.40;19.60;94311.00;;;;10521009;28;45222;-62
2022/05/13 18:15:15;;;;;;;0.85;0.80;;;17.50;52.40;19.60;94309.00;;;;10495917;28;45305;-62
2022/05/13 18:20:36;;;;;;;1.42;0.90;;;17.50;52.30;19.60;94307.00;;;;10481081;28;45846;-62
2022/05/13 18:25:57;;;;;;;1.23;0.70;;;17.50;52.30;19.60;94311.00;;;;10479635;28;45099;-62
2022/05/13 18:31:19;;;;;;;1.40;0.88;;;17.50;52.40;19.60;94308.00;;;;10479489;28;45770;-61
2022/05/13 18:36:39;;;;;;;1.83;0.90;;;17.50;52.30;19.50;94329.00;;;;10479614;28;45163;-61
2022/05/13 18:47:39;;;;;;;1.67;0.90;;;17.50;52.30;19.50;94342.00;;;;10479167;28;45158;-62
2022/05/13 18:53:00;;;;;;;1.20;0.93;;;17.50;52.40;19.50;94345.00;;;;10479431;28;45175;-61
2022/05/13 18:58:21;;;;;;;1.35;1.10;;;17.40;52.40;19.50;94344.00;;;;10478867;28;45795;-62
2022/05/13 19:03:43;;;;;;;1.33;0.90;;;17.40;52.30;19.50;94336.00;;;;10477494;28;45176;-62
2022/05/13 19:09:04;;;;;;;0.90;0.80;;;17.40;52.30;19.50;94347.00;;;;10478396;28;45203;-62
2022/05/13 19:14:25;;;;;;;1.63;0.90;;;17.40;52.30;19.50;94332.00;;;;10478378;28;45207;-62
2022/05/13 19:19:47;;;;;;;1.33;0.90;;;17.40;52.30;19.50;94349.00;;;;10477795;28;45163;-63
2022/05/13 19:25:09;;;;;;;0.93;0.80;;;17.40;52.30;19.50;94358.00;;;;10477798;28;45680;-62
2022/05/13 19:30:30;;;;;;;2.25;1.00;;;17.40;52.50;19.50;94361.00;;;;10478202;28;45360;-62
2022/05/13 19:35:52;;;;;;;1.52;0.90;;;17.40;52.40;19.50;94357.00;;;;10477084;28;45446;-62
2022/05/13 19:41:15;;;;;;;1.20;0.80;;;17.40;52.50;19.50;94367.00;;;;10477473;28;45195;-62
2022/05/13 19:46:38;;;;;;;1.58;1.10;;;17.40;52.70;19.40;94365.00;;;;10477212;28;45101;-61
2022/05/13 19:52:00;;;;;;;1.27;0.80;;;17.40;52.90;19.50;94360.00;;;;10476971;28;45773;-62
2022/05/13 19:57:20;;;;;;;2.78;1.20;;;17.40;52.90;19.40;94358.00;;;;10477127;28;45188;-62
2022/05/13 20:02:41;;;;;;;2.92;1.20;;;17.40;53.10;19.40;94348.00;;;;10477001;28;45471;-68
2022/05/13 20:13:43;;;;;;;1.17;0.90;;;17.40;53.00;19.40;94360.00;;;;10473827;28;45291;-60
2022/05/13 20:19:04;;;;;;;1.15;0.80;;;17.40;53.10;19.40;94370.00;;;;10476677;28;45140;-59
2022/05/13 20:24:25;;;;;;;1.95;0.95;;;17.40;53.10;19.40;94363.00;;;;10476393;28;45251;-60
2022/05/13 20:29:46;;;;;;;1.13;1.02;;;17.30;52.80;19.40;94373.00;;;;10476811;28;45096;-59
2022/05/13 20:35:08;;;;;;;1.17;0.90;;;17.30;53.00;19.40;94368.00;;;;10483901;28;45135;-61
2022/05/13 20:40:31;;;;;;;1.15;0.90;;;17.30;53.00;19.40;94380.00;;;;10483336;28;45390;-60
2022/05/13 20:45:51;;;;;;;1.77;0.93;;;17.30;52.80;19.40;94370.00;;;;10483003;28;45301;-60
2022/05/13 20:51:13;;;;;;;1.30;1.00;;;17.30;52.70;19.30;94361.00;;;;10483004;28;45206;-60
2022/05/13 20:56:38;;;;;;;1.45;0.90;;;17.30;52.70;19.30;94356.00;;;;10482873;28;45351;-60
2022/05/13 21:01:58;;;;;;;1.20;0.95;;;17.30;52.70;19.30;94371.00;;;;10482664;28;45925;-60
2022/05/13 21:07:21;;;;;;;1.10;1.00;;;17.30;52.70;19.30;94368.00;;;;10482026;28;45168;-60
2022/05/13 21:12:43;;;;;;;2.25;1.00;;;17.30;52.80;19.30;94364.00;;;;10482428;28;45171;-60
2022/05/13 21:18:06;;;;;;;2.10;1.10;;;17.30;52.70;19.30;94375.00;;;;10481969;28;45115;-60
2022/05/13 21:23:27;;;;;;;0.80;0.73;;;17.20;52.60;19.30;94371.00;;;;10482067;28;45189;-60
2022/05/13 21:28:49;;;;;;;1.67;0.98;;;17.20;52.70;19.30;94368.00;;;;10481408;28;45846;-60
2022/05/13 21:39:48;;;;;;;1.35;0.90;;;17.30;52.60;19.30;94358.00;;;;10481286;28;45219;-60
2022/05/13 21:45:12;;;;;;;0.98;0.80;;;17.20;53.30;19.30;94377.00;;;;10479780;28;45330;-60
2022/05/13 21:50:32;;;;;;;0.98;0.80;;;17.20;52.50;19.30;94369.00;;;;10481582;28;45216;-60
2022/05/13 21:55:53;;;;;;;1.70;1.20;;;17.20;52.50;19.30;94370.00;;;;10480701;28;45104;-60
2022/05/13 22:01:17;;;;;;;1.75;0.70;;;17.20;52.40;19.30;94362.00;;;;10480777;28;45163;-60
2022/05/13 22:06:38;;;;;;;1.02;0.90;;;17.20;52.50;19.30;94366.00;;;;10480231;28;45738;-61
2022/05/13 22:11:58;;;;;;;1.08;0.80;;;17.20;52.30;19.30;94371.00;;;;10480559;28;45151;-60
2022/05/13 22:17:20;;;;;;;1.67;0.80;;;17.20;52.40;19.30;94365.00;;;;10479986;28;45878;-61
2022/05/13 22:22:41;;;;;;;1.85;1.10;;;17.20;52.40;19.20;94368.00;;;;10480188;28;45233;-60
2022/05/13 22:28:01;;;;;;;2.30;0.93;;;17.20;52.40;19.30;94358.00;;;;10479693;28;45187;-60
2022/05/13 22:33:23;;;;;;;1.52;0.90;;;17.20;52.30;19.20;94357.00;;;;10479698;28;45198;-62
2022/05/13 22:38:44;;;;;;;1.15;0.80;;;17.20;52.20;19.20;94352.00;;;;10479207;28;45266;-60
2022/05/13 22:44:05;;;;;;;1.65;0.90;;;17.20;52.20;19.20;94362.00;;;;10479212;28;45828;-60
2022/05/13 22:49:27;;;;;;;0.93;0.70;;;17.20;52.20;19.20;94356.00;;;;10478935;28;45967;-60
2022/05/13 22:54:48;;;;;;;1.13;0.88;;;17.20;52.20;19.20;94362.00;;;;10478310;28;45809;-61
2022/05/13 23:00:10;;;;;;;1.02;0.90;;;17.20;52.20;19.20;94357.00;;;;10478648;28;45732;-60
2022/05/13 23:05:33;;;;;;;0.93;0.80;;;17.20;52.20;19.20;94351.00;;;;10477788;28;45309;-60
2022/05/13 23:16:34;;;;;;;1.20;0.88;;;17.10;52.00;19.20;94341.00;;;;10478144;28;45401;-60
2022/05/13 23:21:55;;;;;;;1.48;0.70;;;17.20;52.20;19.20;94354.00;;;;10478650;28;45447;-60
2022/05/13 23:27:16;;;;;;;1.27;0.90;;;17.20;52.10;19.20;94348.00;;;;10478052;28;45854;-61
2022/05/13 23:32:36;;;;;;;0.95;0.70;;;17.10;52.10;19.20;94333.00;;;;10478342;28;45672;-60
2022/05/13 23:37:58;;;;;;;1.00;0.80;;;17.10;52.00;19.20;94333.00;;;;10477431;28;45135;-60
2022/05/13 23:43:19;;;;;;;1.67;0.68;;;17.10;52.00;19.20;94339.00;;;;10477663;28;45401;-60
2022/05/13 23:48:40;;;;;;;1.10;0.80;;;17.10;52.00;19.20;94321.00;;;;10477774;28;45139;-61
2022/05/13 23:59:43;;;;;;;0.98;0.80;;;17.10;52.00;19.20;94332.00;;;;10476643;28;45164;-60
